createdAt,value
2017-06-05T00:01:31.719Z,80.00
2017-06-05T00:03:59.807Z,79.60
2017-06-05T00:06:27.920Z,79.40
2017-06-05T00:08:56.016Z,79.40
2017-06-05T00:11:24.091Z,79.70
2017-06-05T00:13:52.163Z,79.60
2017-06-05T00:16:20.249Z,79.50
2017-06-05T00:18:48.332Z,79.70
2017-06-05T00:21:16.428Z,79.60
2017-06-05T00:23:44.499Z,80.00
2017-06-05T00:26:12.596Z,80.40
2017-06-05T00:28:40.668Z,80.20
2017-06-05T00:31:08.751Z,80.10
2017-06-05T00:33:37.595Z,80.50
2017-06-05T00:36:05.679Z,80.50
2017-06-05T00:38:33.774Z,80.50
2017-06-05T00:41:02.619Z,80.90
2017-06-05T00:43:30.794Z,80.90
2017-06-05T00:45:58.869Z,80.60
2017-06-05T00:48:26.966Z,80.70
2017-06-05T00:50:55.040Z,81.10
2017-06-05T00:53:23.131Z,80.80
2017-06-05T00:55:51.204Z,81.20
2017-06-05T00:58:19.277Z,81.00
2017-06-05T01:00:47.357Z,81.00
2017-06-05T01:03:16.196Z,81.20
2017-06-05T01:05:44.364Z,81.20
2017-06-05T01:08:12.443Z,81.10
2017-06-05T01:10:40.519Z,81.10
2017-06-05T01:13:08.591Z,80.70
2017-06-05T01:15:36.684Z,80.80
2017-06-05T01:18:04.756Z,81.10
2017-06-05T01:20:32.832Z,81.40
2017-06-05T01:23:00.918Z,81.50
2017-06-05T01:25:28.996Z,81.70
2017-06-05T01:27:57.075Z,81.60
2017-06-05T01:30:25.916Z,82.00
2017-06-05T01:32:54.008Z,82.00
2017-06-05T01:35:22.084Z,82.10
2017-06-05T01:37:50.177Z,82.20
2017-06-05T01:40:18.256Z,82.30
2017-06-05T01:42:46.341Z,82.70
2017-06-05T01:45:15.188Z,83.10
2017-06-05T01:47:43.260Z,83.00
2017-06-05T01:50:11.337Z,83.30
2017-06-05T01:52:39.403Z,83.20
2017-06-05T01:55:07.499Z,83.00
2017-06-05T01:57:35.580Z,82.60
2017-06-05T02:00:04.423Z,83.00
2017-06-05T02:02:32.552Z,82.90
2017-06-05T02:05:01.393Z,83.10
2017-06-05T02:07:29.491Z,83.00
2017-06-05T02:09:57.559Z,82.90
2017-06-05T02:12:25.647Z,82.80
2017-06-05T02:14:54.491Z,83.70
2017-06-05T02:17:22.592Z,82.90
2017-06-05T02:19:50.672Z,82.60
2017-06-05T02:22:18.747Z,82.30
2017-06-05T02:24:46.836Z,82.80
2017-06-05T02:27:14.907Z,83.20
2017-06-05T02:29:42.991Z,83.30
2017-06-05T02:32:11.065Z,83.60
2017-06-05T02:34:39.938Z,83.60
2017-06-05T02:37:08.008Z,83.60
2017-06-05T02:39:36.079Z,83.90
2017-06-05T02:42:04.151Z,84.30
2017-06-05T02:44:32.223Z,84.30
2017-06-05T02:47:00.312Z,83.90
2017-06-05T02:49:29.152Z,84.30
2017-06-05T02:51:57.252Z,84.30
2017-06-05T02:54:25.323Z,84.10
2017-06-05T02:56:53.452Z,84.10
2017-06-05T02:59:21.528Z,84.20
2017-06-05T03:01:49.608Z,84.30
2017-06-05T03:04:17.705Z,84.30
2017-06-05T03:06:45.775Z,84.10
2017-06-05T03:09:13.869Z,84.30
2017-06-05T03:11:41.944Z,84.40
2017-06-05T03:14:10.017Z,84.70
2017-06-05T03:16:38.097Z,84.50
2017-06-05T03:19:06.953Z,84.50
2017-06-05T03:21:35.037Z,84.40
2017-06-05T03:24:03.116Z,84.50
2017-06-05T03:26:31.196Z,84.80
2017-06-05T03:28:59.324Z,85.40
2017-06-05T03:31:27.409Z,85.40
2017-06-05T03:33:55.488Z,85.40
2017-06-05T03:36:23.567Z,85.50
2017-06-05T03:38:51.648Z,85.00
2017-06-05T03:41:19.737Z,85.20
2017-06-05T03:43:47.840Z,85.10
2017-06-05T03:46:16.003Z,85.10
2017-06-05T03:48:44.075Z,85.30
2017-06-05T03:51:12.152Z,85.70
2017-06-05T03:53:40.266Z,85.80
2017-06-05T03:56:08.343Z,85.90
2017-06-05T03:58:36.421Z,85.30
2017-06-05T04:01:04.735Z,86.00
2017-06-05T04:03:33.588Z,85.80
2017-06-05T04:06:01.688Z,85.70
2017-06-05T04:08:29.760Z,85.80
2017-06-05T04:10:58.611Z,86.20
2017-06-05T04:13:26.684Z,86.20
2017-06-05T04:15:54.783Z,85.60
2017-06-05T04:18:22.866Z,85.90
2017-06-05T04:20:50.940Z,85.90
2017-06-05T04:23:19.797Z,85.40
2017-06-05T04:25:47.876Z,85.30
2017-06-05T04:28:15.964Z,85.50
2017-06-05T04:30:44.048Z,85.30
2017-06-05T04:33:12.129Z,84.30
2017-06-05T04:35:40.971Z,85.10
2017-06-05T04:38:09.060Z,84.10
2017-06-05T04:40:37.146Z,83.90
2017-06-05T04:43:05.216Z,83.70
2017-06-05T04:45:33.299Z,83.70
2017-06-05T04:48:01.372Z,84.10
2017-06-05T04:50:29.448Z,84.90
2017-06-05T04:52:58.292Z,84.80
2017-06-05T04:55:26.381Z,84.80
2017-06-05T04:57:54.456Z,84.90
2017-06-05T05:00:22.545Z,85.10
2017-06-05T05:02:50.624Z,84.80
2017-06-05T05:05:18.695Z,85.50
2017-06-05T05:07:46.886Z,85.30
2017-06-05T05:10:14.975Z,85.20
2017-06-05T05:12:43.065Z,85.30
2017-06-05T05:15:11.139Z,86.10
2017-06-05T05:17:39.237Z,86.10
2017-06-05T05:20:07.314Z,86.00
2017-06-05T05:22:35.413Z,85.70
2017-06-05T05:25:03.495Z,85.40
2017-06-05T05:27:32.343Z,85.30
2017-06-05T05:30:00.422Z,85.30
2017-06-05T05:32:28.492Z,85.00
2017-06-05T05:34:56.664Z,85.10
2017-06-05T05:37:24.735Z,84.10
2017-06-05T05:39:52.824Z,84.50
2017-06-05T05:42:20.905Z,84.50
2017-06-05T05:44:49.000Z,85.00
2017-06-05T05:47:17.076Z,85.30
2017-06-05T05:49:45.170Z,84.80
2017-06-05T05:52:13.261Z,84.50
2017-06-05T05:54:41.335Z,84.50
2017-06-05T05:57:09.421Z,85.20
2017-06-05T05:59:37.491Z,84.10
2017-06-05T06:02:05.567Z,84.40
2017-06-05T06:04:33.637Z,84.60
2017-06-05T06:07:01.731Z,84.10
2017-06-05T06:09:29.804Z,84.10
2017-06-05T06:11:57.881Z,84.00
2017-06-05T06:14:26.731Z,83.70
2017-06-05T06:16:54.805Z,82.90
2017-06-05T06:19:22.890Z,84.40
2017-06-05T06:21:50.967Z,83.90
2017-06-05T06:24:19.040Z,84.10
2017-06-05T06:26:47.108Z,84.70
2017-06-05T06:29:15.193Z,84.40
2017-06-05T06:31:43.268Z,84.40
2017-06-05T06:34:11.371Z,83.80
2017-06-05T06:36:39.449Z,84.10
2017-06-05T06:39:07.523Z,84.50
2017-06-05T06:41:35.615Z,84.40
2017-06-05T06:44:03.723Z,84.70
2017-06-05T06:46:31.788Z,84.30
2017-06-05T06:48:59.884Z,83.90
2017-06-05T06:51:27.965Z,83.30
2017-06-05T06:53:56.039Z,83.70
2017-06-05T06:56:24.907Z,84.10
2017-06-05T06:58:52.981Z,83.90
2017-06-05T07:01:21.064Z,83.80
2017-06-05T07:03:49.144Z,83.60
2017-06-05T07:06:17.984Z,83.20
2017-06-05T07:08:46.070Z,83.20
2017-06-05T07:11:14.148Z,82.20
2017-06-05T07:13:42.237Z,81.80
2017-06-05T07:16:10.308Z,82.30
2017-06-05T07:18:38.412Z,81.60
2017-06-05T07:21:06.486Z,81.80
2017-06-05T07:23:34.555Z,82.00
2017-06-05T07:26:02.640Z,81.80
2017-06-05T07:28:30.743Z,81.50
2017-06-05T07:30:58.827Z,81.20
2017-06-05T07:33:26.908Z,81.20
2017-06-05T07:35:54.992Z,81.00
2017-06-05T07:38:23.072Z,81.80
2017-06-05T07:40:51.147Z,80.50
2017-06-05T07:43:19.224Z,80.30
2017-06-05T07:45:48.072Z,80.60
2017-06-05T07:48:16.160Z,80.40
2017-06-05T07:50:44.224Z,80.10
2017-06-05T07:53:12.312Z,80.10
2017-06-05T07:55:40.412Z,80.40
2017-06-05T07:58:09.268Z,79.60
2017-06-05T08:00:37.353Z,79.60
2017-06-05T08:03:05.455Z,79.90
2017-06-05T08:05:33.536Z,80.00
2017-06-05T08:08:01.627Z,79.50
2017-06-05T08:10:29.776Z,79.20
2017-06-05T08:12:58.623Z,79.50
2017-06-05T08:15:26.707Z,79.50
2017-06-05T08:17:54.788Z,80.00
2017-06-05T08:20:22.887Z,79.20
2017-06-05T08:22:50.967Z,79.00
2017-06-05T08:25:19.131Z,79.70
2017-06-05T08:27:47.255Z,79.80
2017-06-05T08:30:15.327Z,79.40
2017-06-05T08:32:43.431Z,79.60
2017-06-05T08:35:12.271Z,80.10
2017-06-05T08:37:40.360Z,80.10
2017-06-05T08:40:08.968Z,79.40
2017-06-05T08:42:37.068Z,79.10
2017-06-05T08:45:05.146Z,78.80
2017-06-05T08:47:33.500Z,79.20
2017-06-05T08:50:01.571Z,78.60
2017-06-05T08:52:30.420Z,78.00
2017-06-05T08:54:58.532Z,78.00
2017-06-05T08:57:26.628Z,78.40
2017-06-05T08:59:54.712Z,77.70
2017-06-05T09:02:22.789Z,77.50
2017-06-05T09:04:50.886Z,78.00
2017-06-05T09:07:18.968Z,77.80
2017-06-05T09:09:47.053Z,77.60
2017-06-05T09:12:15.146Z,77.70
2017-06-05T09:14:43.239Z,77.30
2017-06-05T09:17:11.316Z,77.50
2017-06-05T09:19:39.392Z,77.70
2017-06-05T09:22:19.153Z,78.70
2017-06-05T09:24:47.232Z,77.70
2017-06-05T09:27:15.310Z,77.90
2017-06-05T09:29:49.087Z,78.20
2017-06-05T09:32:17.196Z,78.10
2017-06-05T09:34:45.279Z,78.50
2017-06-05T09:37:13.352Z,79.00
2017-06-05T09:39:41.439Z,78.80
2017-06-05T09:42:09.511Z,78.60
2017-06-05T09:44:37.591Z,78.70
2017-06-05T09:47:05.667Z,78.90
2017-06-05T09:49:34.525Z,78.40
2017-06-05T09:52:02.604Z,78.40
2017-06-05T09:54:30.707Z,78.10
2017-06-05T09:56:59.669Z,78.70
2017-06-05T09:59:27.795Z,77.90
2017-06-05T10:01:55.882Z,78.10
2017-06-05T10:04:23.963Z,77.80
2017-06-05T10:06:52.053Z,77.20
2017-06-05T10:09:20.135Z,77.00
2017-06-05T10:11:48.239Z,76.20
2017-06-05T10:14:17.081Z,76.30
2017-06-05T10:16:45.150Z,76.30
2017-06-05T10:19:13.244Z,76.70
2017-06-05T10:21:41.314Z,76.10
2017-06-05T10:24:09.387Z,75.80
2017-06-05T10:26:37.488Z,75.80
2017-06-05T10:29:05.568Z,76.60
2017-06-05T10:31:33.640Z,77.00
2017-06-05T10:34:01.755Z,76.60
2017-06-05T10:36:29.832Z,75.10
2017-06-05T10:38:57.916Z,74.60
2017-06-05T10:41:26.007Z,74.40
2017-06-05T10:43:54.087Z,74.40
2017-06-05T10:46:22.167Z,73.60
2017-06-05T10:48:51.019Z,75.00
2017-06-05T10:51:19.107Z,74.30
2017-06-05T10:53:47.199Z,73.90
2017-06-05T10:56:15.560Z,72.20
2017-06-05T10:58:43.680Z,72.50
2017-06-05T11:01:11.751Z,72.00
2017-06-05T11:03:39.836Z,72.30
2017-06-05T11:06:07.908Z,71.80
2017-06-05T11:08:35.995Z,73.00
2017-06-05T11:11:04.072Z,71.50
2017-06-05T11:13:32.151Z,71.20
2017-06-05T11:16:00.268Z,72.10
2017-06-05T11:18:29.136Z,71.10
2017-06-05T11:20:57.202Z,71.00
2017-06-05T11:23:25.285Z,71.40
2017-06-05T11:25:53.364Z,70.80
2017-06-05T11:28:21.430Z,70.80
2017-06-05T11:30:49.507Z,70.90
2017-06-05T11:33:17.637Z,70.80
2017-06-05T11:35:45.716Z,70.50
2017-06-05T11:38:13.787Z,69.10
2017-06-05T11:40:41.896Z,68.90
2017-06-05T11:43:09.968Z,68.70
2017-06-05T11:45:38.048Z,69.20
2017-06-05T11:48:06.128Z,68.50
2017-06-05T11:50:34.356Z,68.10
2017-06-05T11:53:02.436Z,68.60
2017-06-05T11:55:30.508Z,67.80
2017-06-05T11:57:58.617Z,67.30
2017-06-05T12:00:26.692Z,67.50
2017-06-05T12:02:54.774Z,66.80
2017-06-05T12:05:23.628Z,66.50
2017-06-05T12:07:51.840Z,66.40
2017-06-05T12:10:20.691Z,67.70
2017-06-05T12:12:48.772Z,67.60
2017-06-05T12:15:16.851Z,67.10
2017-06-05T12:17:44.929Z,66.70
2017-06-05T12:20:13.030Z,67.30
2017-06-05T12:22:41.096Z,66.40
2017-06-05T12:25:09.938Z,69.20
2017-06-05T12:27:38.025Z,69.20
2017-06-05T12:30:06.121Z,70.20
2017-06-05T12:32:34.995Z,72.30
2017-06-05T12:35:03.072Z,72.30
2017-06-05T12:37:31.152Z,74.10
2017-06-05T12:39:59.683Z,74.00
2017-06-05T12:42:27.784Z,75.00
2017-06-05T12:44:55.856Z,75.70
2017-06-05T12:47:23.926Z,75.80
2017-06-05T12:49:52.032Z,75.20
2017-06-05T12:52:20.871Z,76.00
2017-06-05T12:54:48.966Z,76.00
2017-06-05T12:57:17.036Z,76.00
2017-06-05T12:59:45.123Z,76.60
2017-06-05T13:02:13.196Z,76.20
2017-06-05T13:04:41.276Z,76.20
2017-06-05T13:07:09.339Z,76.20
2017-06-05T13:09:37.451Z,76.30
2017-06-05T13:12:05.530Z,75.90
2017-06-05T13:14:33.644Z,74.90
2017-06-05T13:17:01.730Z,74.40
2017-06-05T13:19:29.812Z,73.90
2017-06-05T13:21:57.889Z,71.90
2017-06-05T13:24:26.728Z,73.10
2017-06-05T13:26:54.811Z,73.20
2017-06-05T13:29:22.884Z,70.70
2017-06-05T13:31:50.987Z,70.70
2017-06-05T13:34:19.120Z,71.30
2017-06-05T13:36:47.196Z,71.10
2017-06-05T13:39:15.283Z,71.40
2017-06-05T13:41:43.361Z,72.10
2017-06-05T13:44:11.435Z,74.30
2017-06-05T13:46:39.515Z,73.80
2017-06-05T13:49:07.599Z,75.40
2017-06-05T13:51:35.680Z,76.10
2017-06-05T13:54:04.557Z,79.10
2017-06-05T13:56:32.721Z,78.90
2017-06-05T13:59:00.789Z,77.10
2017-06-05T14:01:28.871Z,76.10
2017-06-05T14:03:56.973Z,77.30
2017-06-05T14:06:25.824Z,77.00
2017-06-05T14:08:53.904Z,77.00
2017-06-05T14:11:21.985Z,76.30
2017-06-05T14:13:50.083Z,77.60
2017-06-05T14:16:18.928Z,78.60
2017-06-05T14:18:47.084Z,78.50
2017-06-05T14:21:15.161Z,79.00
2017-06-05T14:23:43.252Z,77.90
2017-06-05T14:26:11.360Z,80.00
2017-06-05T14:28:40.211Z,79.50
2017-06-05T14:31:08.283Z,79.50
2017-06-05T14:33:36.364Z,79.90
2017-06-05T14:36:04.457Z,79.20
2017-06-05T14:38:32.542Z,79.70
2017-06-05T14:41:01.460Z,79.50
2017-06-05T14:43:29.548Z,79.30
2017-06-05T14:45:58.203Z,78.90
2017-06-05T14:48:26.332Z,79.80
2017-06-05T14:50:54.425Z,80.70
2017-06-05T14:53:22.495Z,81.70
2017-06-05T14:55:50.664Z,81.90
2017-06-05T14:58:19.508Z,82.30
2017-06-05T15:00:47.596Z,82.20
2017-06-05T15:03:15.876Z,82.70
2017-06-05T15:05:43.983Z,82.00
2017-06-05T15:08:12.436Z,82.00
2017-06-05T15:10:40.521Z,81.80
2017-06-05T15:13:08.922Z,82.20
2017-06-05T15:15:38.428Z,81.40
2017-06-05T15:18:11.841Z,81.90
2017-06-05T15:20:40.275Z,82.60
2017-06-05T15:23:08.363Z,81.00
2017-06-05T15:25:36.481Z,82.40
2017-06-05T15:28:05.667Z,82.50
2017-06-05T15:30:33.790Z,82.10
2017-06-05T15:33:01.862Z,81.80
2017-06-05T15:35:30.024Z,81.20
2017-06-05T15:37:58.105Z,81.50
2017-06-05T15:40:26.190Z,81.80
2017-06-05T15:42:54.272Z,81.60
2017-06-05T15:45:22.339Z,82.30
2017-06-05T15:47:50.447Z,82.10
2017-06-05T15:50:18.540Z,83.10
2017-06-05T15:52:46.624Z,81.40
2017-06-05T15:55:14.712Z,80.00
2017-06-05T15:57:42.810Z,81.30
2017-06-05T16:00:10.968Z,81.50
2017-06-05T16:02:39.038Z,81.50
2017-06-05T16:05:07.109Z,81.30
2017-06-05T16:07:35.179Z,82.00
2017-06-05T16:10:03.267Z,83.00
2017-06-05T16:12:31.358Z,83.60
2017-06-05T16:15:00.221Z,84.50
2017-06-05T16:17:28.289Z,84.50
2017-06-05T16:19:56.404Z,83.30
2017-06-05T16:22:24.480Z,83.40
2017-06-05T16:24:52.637Z,82.90
2017-06-05T16:27:21.487Z,83.10
2017-06-05T16:29:49.579Z,82.70
2017-06-05T16:32:17.695Z,83.00
2017-06-05T16:34:45.812Z,83.30
2017-06-05T16:37:13.915Z,84.20
2017-06-05T16:39:41.980Z,83.40
2017-06-05T16:42:10.120Z,83.50
2017-06-05T16:44:38.195Z,84.40
2017-06-05T16:47:06.364Z,84.20
2017-06-05T16:49:34.442Z,84.90
2017-06-05T16:52:02.525Z,83.40
2017-06-05T16:54:30.607Z,82.50
2017-06-05T16:56:58.675Z,82.80
2017-06-05T16:59:26.759Z,83.00
2017-06-05T17:01:54.836Z,82.30
2017-06-05T17:04:22.931Z,81.80
2017-06-05T17:06:50.999Z,82.70
2017-06-05T17:09:19.839Z,83.80
2017-06-05T17:11:47.929Z,83.70
2017-06-05T17:14:17.524Z,84.30
2017-06-05T17:16:45.604Z,84.30
2017-06-05T17:19:13.690Z,84.00
2017-06-05T17:21:41.763Z,83.40
2017-06-05T17:24:09.847Z,83.50
2017-06-05T17:26:37.944Z,82.80
2017-06-05T17:29:06.015Z,82.40
2017-06-05T17:31:34.091Z,82.60
2017-06-05T17:34:02.168Z,82.40
2017-06-05T17:36:30.251Z,82.20
2017-06-05T17:38:58.339Z,82.20
2017-06-05T17:41:26.415Z,82.90
2017-06-05T17:43:54.499Z,81.80
2017-06-05T17:46:22.576Z,82.20
2017-06-05T17:48:50.652Z,83.00
2017-06-05T17:51:18.748Z,83.20
2017-06-05T17:53:47.591Z,83.10
2017-06-05T17:56:15.671Z,83.00
2017-06-05T17:58:43.747Z,83.30
2017-06-05T18:01:11.854Z,82.70
2017-06-05T18:03:39.926Z,83.30
2017-06-05T18:06:08.766Z,83.30
2017-06-05T18:08:36.851Z,83.10
2017-06-05T18:14:03.047Z,83.40
2017-06-05T18:16:31.947Z,84.20
2017-06-05T18:19:00.033Z,84.10
2017-06-05T18:21:28.100Z,85.10
2017-06-05T18:23:56.207Z,84.80
2017-06-05T18:26:24.291Z,84.70
2017-06-05T18:28:52.370Z,84.10
2017-06-05T18:31:20.461Z,84.40
2017-06-05T18:33:48.944Z,84.40
2017-06-05T18:36:17.799Z,84.50
2017-06-05T18:38:45.880Z,84.70
2017-06-05T18:41:13.968Z,85.00
2017-06-05T18:43:42.039Z,84.70
2017-06-05T18:46:10.143Z,84.50
2017-06-05T18:48:38.218Z,84.40
2017-06-05T18:51:06.283Z,84.50
2017-06-05T18:53:35.135Z,84.90
2017-06-05T18:56:03.205Z,84.70
2017-06-05T18:58:31.304Z,84.30
2017-06-05T19:00:59.377Z,84.70
2017-06-05T19:03:27.470Z,84.90
2017-06-05T19:05:55.553Z,84.50
2017-06-05T19:08:23.645Z,84.70
2017-06-05T19:10:51.736Z,84.10
2017-06-05T19:13:19.811Z,84.20
2017-06-05T19:15:47.898Z,84.20
2017-06-05T19:18:15.987Z,84.20
2017-06-05T19:20:44.083Z,84.60
2017-06-05T19:23:12.182Z,84.30
2017-06-05T19:25:40.263Z,83.80
2017-06-05T19:28:08.348Z,83.00
2017-06-05T19:30:36.419Z,82.60
2017-06-05T19:33:04.528Z,82.40
2017-06-05T19:35:32.621Z,82.40
2017-06-05T19:38:00.719Z,83.10
2017-06-05T19:40:28.798Z,83.10
2017-06-05T19:42:56.899Z,83.00
2017-06-05T19:45:24.990Z,83.10
2017-06-05T19:47:53.069Z,83.20
2017-06-05T19:50:21.919Z,83.30
2017-06-05T19:52:49.995Z,83.30
2017-06-05T19:55:18.075Z,83.20
2017-06-05T19:57:46.147Z,83.50
2017-06-05T20:00:15.179Z,83.80
2017-06-05T20:02:43.247Z,84.00
2017-06-05T20:05:12.096Z,84.50
2017-06-05T20:07:40.163Z,84.60
2017-06-05T20:10:08.268Z,84.90
2017-06-05T20:12:37.120Z,84.90
2017-06-05T20:15:05.207Z,84.90
2017-06-05T20:17:33.295Z,85.10
2017-06-05T20:20:01.367Z,85.50
2017-06-05T20:22:29.448Z,85.50
2017-06-05T20:24:58.301Z,86.20
2017-06-05T20:27:26.384Z,86.20
2017-06-05T20:29:54.455Z,86.50
2017-06-05T20:32:22.544Z,85.30
2017-06-05T20:34:50.618Z,85.40
2017-06-05T20:37:19.388Z,85.50
2017-06-05T20:39:47.472Z,85.80
2017-06-05T20:42:15.544Z,85.90
2017-06-05T20:44:43.631Z,85.70
2017-06-05T20:47:12.166Z,85.80
2017-06-05T20:49:40.252Z,85.50
2017-06-05T20:52:08.331Z,85.80
2017-06-05T20:54:36.463Z,85.80
2017-06-05T20:57:04.540Z,86.10
2017-06-05T20:59:32.604Z,86.60
2017-06-05T21:02:00.753Z,86.70
2017-06-05T21:04:28.811Z,87.00
2017-06-05T21:06:56.890Z,87.00
2017-06-05T21:09:24.963Z,87.60
2017-06-05T21:11:53.063Z,87.90
2017-06-05T21:14:21.136Z,88.10
2017-06-05T21:16:49.208Z,87.80
2017-06-05T21:19:17.745Z,88.00
2017-06-05T21:21:45.826Z,87.90
2017-06-05T21:24:13.911Z,88.20
2017-06-05T21:26:42.751Z,87.90
2017-06-05T21:29:10.834Z,88.30
2017-06-05T21:31:38.911Z,88.60
2017-06-05T21:34:07.050Z,88.70
2017-06-05T21:36:35.121Z,88.40
2017-06-05T21:39:03.195Z,88.30
2017-06-05T21:41:31.279Z,90.00
2017-06-05T21:43:59.454Z,88.40
2017-06-05T21:46:27.539Z,88.20
2017-06-05T21:48:55.624Z,88.30
2017-06-05T21:51:23.727Z,88.50
2017-06-05T21:53:51.798Z,88.30
2017-06-05T21:56:19.871Z,88.60
2017-06-05T21:58:47.951Z,88.20
2017-06-05T22:01:16.122Z,88.50
2017-06-05T22:03:44.195Z,88.60
2017-06-05T22:06:12.279Z,89.40
2017-06-05T22:08:40.363Z,88.50
2017-06-05T22:11:08.435Z,88.60
2017-06-05T22:13:36.543Z,88.80
2017-06-05T22:16:04.618Z,88.70
2017-06-05T22:18:32.703Z,88.60
2017-06-05T22:23:58.137Z,89.20
2017-06-05T22:26:26.219Z,89.30
2017-06-05T22:28:54.304Z,89.10
2017-06-05T22:31:22.607Z,89.10
2017-06-05T22:33:50.676Z,89.30
2017-06-05T22:36:18.788Z,89.50
2017-06-05T22:38:46.899Z,89.60
2017-06-05T22:41:14.971Z,90.00
2017-06-05T22:43:43.823Z,90.80
2017-06-05T22:46:11.900Z,90.40
2017-06-05T22:48:39.983Z,90.50
2017-06-05T22:51:08.076Z,90.60
2017-06-05T22:53:36.160Z,90.50
2017-06-05T22:56:04.236Z,90.60
2017-06-05T22:58:32.316Z,90.60
2017-06-05T23:01:00.396Z,90.60
2017-06-05T23:03:28.467Z,90.90
2017-06-05T23:05:56.561Z,90.80
2017-06-05T23:08:24.637Z,90.60
2017-06-05T23:10:52.724Z,90.50
2017-06-05T23:13:20.808Z,90.40
2017-06-05T23:15:48.896Z,90.30
2017-06-05T23:18:16.971Z,90.50
2017-06-05T23:20:45.083Z,90.60
2017-06-05T23:23:13.156Z,90.50
2017-06-05T23:25:41.245Z,90.50
2017-06-05T23:28:09.343Z,90.50
2017-06-05T23:30:37.425Z,90.20
2017-06-05T23:33:05.513Z,90.10
2017-06-05T23:35:33.589Z,90.20
2017-06-05T23:38:02.468Z,90.00
2017-06-05T23:40:30.559Z,90.00
2017-06-05T23:42:58.636Z,90.00
2017-06-05T23:45:27.527Z,90.10
2017-06-05T23:47:56.368Z,90.10
2017-06-05T23:50:24.451Z,90.10
2017-06-05T23:52:52.523Z,90.00
2017-06-05T23:55:20.619Z,90.10
2017-06-05T23:57:49.466Z,90.50
